createdAt,value
2022-11-22T00:00:12.854Z,99730.81
2022-11-22T00:03:18.947Z,99733.97
2022-11-22T00:06:24.647Z,99728.56
2022-11-22T00:09:31.605Z,99723.28
2022-11-22T00:12:38.341Z,99704.69
2022-11-22T00:15:44.545Z,99703.72
2022-11-22T00:18:49.930Z,99704.34
2022-11-22T00:21:55.597Z,99699.84
2022-11-22T00:25:01.211Z,99685.47
2022-11-22T00:28:07.040Z,99675.25
2022-11-22T00:31:12.305Z,99656.88
2022-11-22T00:34:18.359Z,99652.69
2022-11-22T00:37:23.934Z,99634.19
2022-11-22T00:40:29.729Z,99623.06
2022-11-22T00:43:35.494Z,99626.84
2022-11-22T00:46:41.057Z,99614.94
2022-11-22T00:49:46.487Z,99597.94
2022-11-22T00:52:51.936Z,99598.63
2022-11-22T00:55:57.476Z,99601.94
2022-11-22T00:59:03.158Z,99603.56
2022-11-22T01:02:09.208Z,99591.09
2022-11-22T01:05:14.949Z,99583.34
2022-11-22T01:08:20.713Z,99574.09
2022-11-22T01:11:26.574Z,99563.72
2022-11-22T01:14:32.229Z,99563.72
2022-11-22T01:17:37.579Z,99563.78
2022-11-22T01:20:44.365Z,99544.66
2022-11-22T01:23:49.800Z,99543.81
2022-11-22T01:26:56.159Z,99528.22
2022-11-22T01:30:01.995Z,99522.25
2022-11-22T01:33:07.959Z,99522.03
2022-11-22T01:36:13.411Z,99518.56
2022-11-22T01:39:19.184Z,99504.59
2022-11-22T01:42:24.731Z,99498.66
2022-11-22T01:45:29.784Z,99482.78
2022-11-22T01:48:56.679Z,99466.56
2022-11-22T01:52:11.518Z,99461.47
2022-11-22T01:55:18.320Z,99451.34
2022-11-22T01:58:25.325Z,99443.41
2022-11-22T02:01:32.209Z,99426.34
2022-11-22T02:04:39.585Z,99412.53
2022-11-22T02:08:06.272Z,99404.56
2022-11-22T02:11:14.005Z,99395.78
2022-11-22T02:14:24.951Z,99377.94
2022-11-22T02:17:30.547Z,99365.41
2022-11-22T02:20:38.816Z,99364.09
2022-11-22T02:23:53.037Z,99352.63
2022-11-22T02:26:59.288Z,99346.78
2022-11-22T02:30:05.281Z,99335.84
2022-11-22T02:33:11.483Z,99343.88
2022-11-22T02:36:16.988Z,99334.84
2022-11-22T02:39:31.276Z,99318.63
2022-11-22T02:42:37.344Z,99313.06
2022-11-22T02:45:42.728Z,99307.66
2022-11-22T02:48:48.621Z,99297.03
2022-11-22T02:51:54.476Z,99289.06
2022-11-22T02:55:00.102Z,99284.84
2022-11-22T02:58:06.647Z,99268.34
2022-11-22T03:01:13.810Z,99269.41
2022-11-22T03:04:25.747Z,99257.69
2022-11-22T03:07:31.509Z,99238.22
2022-11-22T03:10:37.276Z,99228.91
2022-11-22T03:13:42.602Z,99216.38
2022-11-22T03:16:48.222Z,99201.19
2022-11-22T03:19:54.196Z,99203.84
2022-11-22T03:23:02.749Z,99183.13
2022-11-22T03:26:10.694Z,99178.34
2022-11-22T03:29:17.719Z,99177.53
2022-11-22T03:32:23.423Z,99161.13
2022-11-22T03:35:29.052Z,99154.44
2022-11-22T03:38:36.379Z,99153.41
2022-11-22T03:41:42.014Z,99141.94
2022-11-22T03:44:47.347Z,99135.91
2022-11-22T03:47:52.809Z,99134.50
2022-11-22T03:51:06.119Z,99137.13
2022-11-22T03:54:12.445Z,99133.91
2022-11-22T03:57:18.063Z,99136.28
2022-11-22T04:00:24.274Z,99127.75
2022-11-22T04:03:30.278Z,99112.91
2022-11-22T04:06:35.696Z,99112.63
2022-11-22T04:09:41.289Z,99111.88
2022-11-22T04:12:47.127Z,99111.69
2022-11-22T04:15:52.637Z,99103.41
2022-11-22T04:18:58.470Z,99114.34
2022-11-22T04:22:03.980Z,99097.66
2022-11-22T04:25:16.010Z,99101.38
2022-11-22T04:29:08.130Z,99101.06
2022-11-22T04:32:10.552Z,99087.56
2022-11-22T04:35:18.979Z,99087.06
2022-11-22T04:38:25.474Z,99072.72
2022-11-22T04:41:30.609Z,99077.81
2022-11-22T04:44:42.328Z,99077.84
2022-11-22T04:48:00.261Z,99076.50
2022-11-22T04:51:25.896Z,99060.63
2022-11-22T04:54:31.260Z,99073.41
2022-11-22T04:57:36.589Z,99064.91
2022-11-22T05:00:42.769Z,99072.34
2022-11-22T05:03:48.340Z,99060.69
2022-11-22T05:06:54.150Z,99047.38
2022-11-22T05:09:59.632Z,99041.31
2022-11-22T05:13:05.376Z,99066.03
2022-11-22T05:16:13.970Z,99071.88
2022-11-22T05:19:19.778Z,99056.22
2022-11-22T05:22:46.671Z,99034.91
2022-11-22T05:25:52.263Z,99035.19
2022-11-22T05:28:58.948Z,99013.13
2022-11-22T05:32:04.419Z,99019.78
2022-11-22T05:35:10.098Z,99021.63
2022-11-22T05:38:16.001Z,99019.28
2022-11-22T05:41:21.343Z,99057.78
2022-11-22T05:44:26.849Z,99034.41
2022-11-22T05:47:36.950Z,99025.94
2022-11-22T05:50:42.545Z,99013.97
2022-11-22T05:53:48.454Z,99016.41
2022-11-22T05:56:53.925Z,99001.84
2022-11-22T05:59:59.151Z,99020.19
2022-11-22T06:03:05.128Z,99010.91
2022-11-22T06:06:11.799Z,99006.94
2022-11-22T06:09:17.535Z,98997.38
2022-11-22T06:12:22.918Z,99005.88
2022-11-22T06:15:28.204Z,98980.19
2022-11-22T06:18:33.894Z,98980.13
2022-11-22T06:21:39.233Z,98983.34
2022-11-22T06:24:44.898Z,98972.47
2022-11-22T06:27:50.676Z,98971.13
2022-11-22T06:31:05.139Z,98977.25
2022-11-22T06:34:12.946Z,98968.22
2022-11-22T06:37:18.414Z,98980.44
2022-11-22T06:40:23.787Z,98962.38
2022-11-22T06:43:33.421Z,98967.97
2022-11-22T06:46:39.339Z,98961.34
2022-11-22T06:49:46.829Z,98968.53
2022-11-22T06:52:53.291Z,98970.91
2022-11-22T06:56:04.016Z,98972.25
2022-11-22T06:59:10.033Z,98960.03
2022-11-22T07:02:15.292Z,98956.56
2022-11-22T07:05:25.953Z,98949.94
2022-11-22T07:08:32.698Z,98951.53
2022-11-22T07:11:39.781Z,98947.28
2022-11-22T07:14:45.591Z,98952.06
2022-11-22T07:17:51.058Z,98932.94
2022-11-22T07:21:10.952Z,98942.25
2022-11-22T07:24:18.441Z,98922.31
2022-11-22T07:27:23.812Z,98927.63
2022-11-22T07:30:29.096Z,98918.59
2022-11-22T07:33:35.624Z,98922.56
2022-11-22T07:36:40.970Z,98928.16
2022-11-22T07:39:46.212Z,98926.03
2022-11-22T07:42:57.008Z,98927.09
2022-11-22T07:46:06.965Z,98927.09
2022-11-22T07:49:12.760Z,98922.31
2022-11-22T07:52:18.516Z,98913.56
2022-11-22T07:55:25.777Z,98914.34
2022-11-22T07:58:32.702Z,98907.97
2022-11-22T08:01:38.301Z,98903.47
2022-11-22T08:04:44.503Z,98888.59
2022-11-22T08:07:52.864Z,98892.59
2022-11-22T08:10:58.511Z,98891.53
2022-11-22T08:14:04.256Z,98885.91
2022-11-22T08:17:09.824Z,98871.59
2022-11-22T08:20:15.835Z,98870.75
2022-11-22T08:23:21.455Z,98859.06
2022-11-22T08:26:27.033Z,98852.97
2022-11-22T08:29:32.605Z,98841.53
2022-11-22T08:32:39.250Z,98835.16
2022-11-22T08:35:44.612Z,98832.75
2022-11-22T08:38:49.757Z,98818.94
2022-11-22T08:41:55.076Z,98829.03
2022-11-22T08:45:00.430Z,98819.97
2022-11-22T08:48:06.016Z,98823.72
2022-11-22T08:51:13.251Z,98809.09
2022-11-22T08:54:18.666Z,98809.59
2022-11-22T08:57:24.409Z,98792.06
2022-11-22T09:00:33.406Z,98782.47
2022-11-22T09:03:40.487Z,98788.84
2022-11-22T09:10:12.139Z,98765.47
2022-11-22T09:13:17.912Z,98764.44
2022-11-22T09:16:23.479Z,98753.25
2022-11-22T09:19:29.838Z,98744.19
2022-11-22T09:22:36.122Z,98736.25
2022-11-22T09:25:41.807Z,98721.09
2022-11-22T09:28:48.312Z,98724.22
2022-11-22T09:31:56.390Z,98738.34
2022-11-22T09:35:02.341Z,98725.59
2022-11-22T09:38:09.176Z,98730.34
2022-11-22T09:41:17.289Z,98718.13
2022-11-22T09:44:45.916Z,98722.94
2022-11-22T09:48:24.768Z,98717.34
2022-11-22T09:51:40.304Z,98707.22
2022-11-22T09:54:58.426Z,98706.72
2022-11-22T09:58:23.791Z,98707.25
2022-11-22T10:01:39.707Z,98697.94
2022-11-22T10:04:56.761Z,98692.63
2022-11-22T10:08:21.783Z,98682.28
2022-11-22T10:11:42.898Z,98680.38
2022-11-22T10:15:11.859Z,98676.16
2022-11-22T10:18:41.640Z,98672.94
2022-11-22T10:21:48.263Z,98671.13
2022-11-22T10:24:53.697Z,98666.91
2022-11-22T10:28:13.205Z,98680.19
2022-11-22T10:31:55.463Z,98695.84
2022-11-22T10:35:14.789Z,98693.25
2022-11-22T10:38:41.480Z,98673.81
2022-11-22T10:41:55.195Z,98672.50
2022-11-22T10:45:20.386Z,98653.94
2022-11-22T10:48:43.219Z,98634.56
2022-11-22T10:52:02.342Z,98638.81
2022-11-22T10:55:19.378Z,98641.16
2022-11-22T10:58:52.021Z,98632.38
2022-11-22T11:02:27.129Z,98631.53
2022-11-22T11:06:22.325Z,98637.34
2022-11-22T11:10:09.605Z,98637.03
2022-11-22T11:13:20.760Z,98637.94
2022-11-22T11:16:31.428Z,98646.47
2022-11-22T11:19:43.486Z,98645.41
2022-11-22T11:23:13.606Z,98656.56
2022-11-22T11:26:20.279Z,98654.16
2022-11-22T11:29:38.735Z,98654.97
2022-11-22T11:32:56.157Z,98668.28
2022-11-22T11:36:16.531Z,98675.22
2022-11-22T11:39:23.752Z,98691.16
2022-11-22T11:42:34.582Z,98694.88
2022-11-22T11:45:39.926Z,98698.66
2022-11-22T11:48:46.411Z,98696.56
2022-11-22T11:51:56.193Z,98705.59
2022-11-22T11:55:03.116Z,98720.72
2022-11-22T11:58:24.318Z,98717.28
2022-11-22T12:01:38.485Z,98727.63
2022-11-22T12:04:57.068Z,98729.50
2022-11-22T12:08:03.203Z,98738.00
2022-11-22T12:11:33.742Z,98747.56
2022-11-22T12:15:09.592Z,98754.19
2022-11-22T12:18:23.181Z,98764.00
2022-11-22T12:21:45.212Z,98764.03
2022-11-22T12:25:16.937Z,98773.31
2022-11-22T12:28:25.340Z,98777.28
2022-11-22T12:31:55.517Z,98781.53
2022-11-22T12:35:13.128Z,98781.28
2022-11-22T12:38:32.414Z,98791.38
2022-11-22T12:41:40.508Z,98793.22
2022-11-22T12:44:54.551Z,98800.13
2022-11-22T12:48:09.190Z,98816.88
2022-11-22T12:51:28.633Z,98820.31
2022-11-22T12:54:42.910Z,98821.63
2022-11-22T12:57:55.245Z,98811.03
2022-11-22T13:01:08.365Z,98810.22
2022-11-22T13:04:26.704Z,98807.03
2022-11-22T13:08:00.448Z,98825.34
2022-11-22T13:11:19.834Z,98830.66
2022-11-22T13:14:40.074Z,98828.53
2022-11-22T13:17:46.033Z,98833.06
2022-11-22T13:21:24.512Z,98834.63
2022-11-22T13:25:00.471Z,98825.34
2022-11-22T13:28:13.620Z,98834.84
2022-11-22T13:31:20.136Z,98834.63
2022-11-22T13:34:27.302Z,98839.63
2022-11-22T13:37:42.183Z,98850.00
2022-11-22T13:40:54.166Z,98835.13
2022-11-22T13:44:22.504Z,98842.28
2022-11-22T13:47:44.052Z,98861.13
2022-11-22T13:50:49.192Z,98855.28
2022-11-22T13:54:33.197Z,98857.41
2022-11-22T13:57:40.861Z,98853.19
2022-11-22T14:00:46.588Z,98847.63
2022-11-22T14:03:52.006Z,98838.31
2022-11-22T14:07:06.933Z,98832.97
2022-11-22T14:10:32.229Z,98830.13
2022-11-22T14:13:59.706Z,98825.56
2022-11-22T14:17:14.251Z,98837.22
2022-11-22T14:20:33.538Z,98835.69
2022-11-22T14:23:50.755Z,98839.09
2022-11-22T14:27:11.739Z,98839.38
2022-11-22T14:30:19.875Z,98837.53
2022-11-22T14:33:29.025Z,98841.50
2022-11-22T14:36:34.557Z,98846.03
2022-11-22T14:39:45.819Z,98856.38
2022-11-22T14:42:54.786Z,98847.09
2022-11-22T14:46:37.410Z,98852.94
2022-11-22T14:49:48.255Z,98859.06
2022-11-22T14:52:59.075Z,98860.66
2022-11-22T14:56:14.959Z,98852.66
2022-11-22T14:59:58.936Z,98856.66
2022-11-22T15:03:28.944Z,98865.44
2022-11-22T15:09:22.733Z,98863.31
2022-11-22T15:10:23.186Z,98876.59
2022-11-22T15:13:34.432Z,98873.41
2022-11-22T16:12:37.440Z,98938.50
2022-11-22T16:15:42.947Z,98945.13
2022-11-22T16:18:49.066Z,98946.72
2022-11-22T16:22:00.131Z,98953.38
2022-11-22T16:25:42.127Z,98959.50
2022-11-22T16:28:51.137Z,98955.78
2022-11-22T16:32:10.915Z,98967.47
2022-11-22T16:35:29.068Z,98967.47
2022-11-22T16:38:35.498Z,98968.53
2022-11-22T16:41:40.932Z,98973.31
2022-11-22T16:44:46.526Z,98983.91
2022-11-22T16:48:16.531Z,98975.69
2022-11-22T16:51:24.575Z,98984.97
2022-11-22T16:54:33.010Z,98975.44
2022-11-22T16:57:38.232Z,98973.84
2022-11-22T17:00:44.889Z,98976.00
2022-11-22T17:03:52.524Z,98975.97
2022-11-22T17:06:57.942Z,98993.53
2022-11-22T17:10:03.476Z,98998.00
2022-11-22T17:13:16.882Z,99004.91
2022-11-22T17:16:22.274Z,99005.16
2022-11-22T17:19:52.222Z,99012.88
2022-11-22T17:22:53.475Z,99014.97
2022-11-22T17:25:58.875Z,99020.56
2022-11-22T17:29:03.895Z,99027.75
2022-11-22T17:32:13.564Z,99033.84
2022-11-22T17:35:19.043Z,99044.78
2022-11-22T17:38:24.472Z,99047.44
2022-11-22T17:41:30.952Z,99050.88
2022-11-22T17:44:36.685Z,99052.97
2022-11-22T17:47:42.388Z,99068.44
2022-11-22T17:50:48.493Z,99062.31
2022-11-22T17:53:54.459Z,99054.56
2022-11-22T17:56:59.910Z,99053.53
2022-11-22T18:00:07.502Z,99054.09
2022-11-22T18:03:12.756Z,99054.34
2022-11-22T18:06:21.922Z,99053.28
2022-11-22T18:09:27.080Z,99051.97
2022-11-22T18:12:41.995Z,99060.22
2022-11-22T18:15:55.361Z,99057.81
2022-11-22T18:19:03.433Z,99071.63
2022-11-22T18:22:09.179Z,99078.53
2022-11-22T18:25:15.123Z,99072.75
2022-11-22T18:28:20.940Z,99092.63
2022-11-22T18:31:29.839Z,99103.53
2022-11-22T18:34:35.777Z,99100.88
2022-11-22T18:37:41.818Z,99103.56
2022-11-22T18:40:47.422Z,99114.72
2022-11-22T18:43:54.873Z,99123.72
2022-11-22T18:47:00.485Z,99130.91
2022-11-22T18:50:09.603Z,99132.28
2022-11-22T18:53:17.572Z,99139.19
2022-11-22T18:56:23.810Z,99144.19
2022-11-22T18:59:29.569Z,99154.75
2022-11-22T19:02:34.749Z,99161.84
2022-11-22T19:05:40.424Z,99172.81
2022-11-22T19:08:47.492Z,99175.66
2022-11-22T19:11:58.673Z,99180.03
2022-11-22T19:15:04.378Z,99202.06
2022-11-22T19:18:10.036Z,99201.03
2022-11-22T19:21:21.990Z,99214.66
2022-11-22T19:24:27.653Z,99223.03
2022-11-22T19:27:33.082Z,99223.97
2022-11-22T19:30:42.788Z,99232.47
2022-11-22T19:33:49.602Z,99234.03
2022-11-22T19:36:55.085Z,99231.53
2022-11-22T19:40:00.318Z,99236.75
2022-11-22T19:43:05.991Z,99245.78
2022-11-22T19:46:10.986Z,99256.94
2022-11-22T19:49:16.609Z,99268.16
2022-11-22T19:52:21.619Z,99273.22
2022-11-22T19:55:26.991Z,99267.66
2022-11-22T19:58:34.284Z,99282.56
2022-11-22T20:01:40.440Z,99271.38
2022-11-22T20:04:45.824Z,99276.69
2022-11-22T20:07:51.637Z,99286.84
2022-11-22T20:11:03.070Z,99289.69
2022-11-22T20:14:09.733Z,99289.97
2022-11-22T20:17:16.028Z,99297.94
2022-11-22T20:20:21.832Z,99305.34
2022-11-22T20:23:28.486Z,99308.00
2022-11-22T20:26:34.687Z,99311.34
2022-11-22T20:29:40.671Z,99316.44
2022-11-22T20:32:46.032Z,99312.75
2022-11-22T20:35:51.794Z,99321.03
2022-11-22T20:38:57.441Z,99331.13
2022-11-22T20:42:32.579Z,99336.97
2022-11-22T20:45:29.709Z,99344.09
2022-11-22T20:48:37.321Z,99343.09
2022-11-22T20:51:45.144Z,99341.44
2022-11-22T20:54:50.837Z,99344.94
2022-11-22T20:57:56.601Z,99350.56
2022-11-22T21:01:07.788Z,99349.50
2022-11-22T21:04:18.717Z,99356.72
2022-11-22T21:07:26.090Z,99348.97
2022-11-22T21:10:32.620Z,99352.94
2022-11-22T21:13:38.231Z,99351.91
2022-11-22T21:16:43.501Z,99344.22
2022-11-22T21:19:48.923Z,99341.03
2022-11-22T21:22:55.118Z,99343.88
2022-11-22T21:26:01.182Z,99351.69
2022-11-22T21:29:15.923Z,99349.53
2022-11-22T21:32:22.313Z,99345.81
2022-11-22T21:35:27.784Z,99352.69
2022-11-22T21:38:38.899Z,99349.53
2022-11-22T21:41:44.846Z,99350.59
2022-11-22T21:44:50.085Z,99351.41
2022-11-22T21:47:55.559Z,99360.50
2022-11-22T21:51:01.452Z,99368.78
2022-11-22T21:54:07.304Z,99382.31
2022-11-22T21:57:13.296Z,99390.28
2022-11-22T22:00:18.781Z,99383.66
2022-11-22T22:03:25.186Z,99387.03
2022-11-22T22:06:30.559Z,99386.69
2022-11-22T22:09:36.167Z,99390.75
2022-11-22T22:12:41.781Z,99393.44
2022-11-22T22:15:48.695Z,99402.47
2022-11-22T22:18:54.704Z,99402.13
2022-11-22T22:22:00.357Z,99406.94
2022-11-22T22:25:06.500Z,99410.91
2022-11-22T22:28:12.319Z,99413.28
2022-11-22T22:31:23.380Z,99427.88
2022-11-22T22:34:29.070Z,99431.31
2022-11-22T22:37:36.040Z,99436.13
2022-11-22T22:40:41.565Z,99435.59
2022-11-22T22:43:48.983Z,99448.78
2022-11-22T22:46:54.609Z,99439.28
2022-11-22T22:50:00.412Z,99450.16
2022-11-22T22:53:05.903Z,99452.31
2022-11-22T22:56:14.297Z,99458.47
2022-11-22T22:59:19.747Z,99453.44
2022-11-22T23:02:26.006Z,99458.66
2022-11-22T23:05:31.482Z,99469.63
2022-11-22T23:08:38.597Z,99475.72
2022-11-22T23:12:02.034Z,99475.34
2022-11-22T23:15:08.032Z,99485.50
2022-11-22T23:18:14.070Z,99490.88
2022-11-22T23:21:19.904Z,99493.22
2022-11-22T23:24:26.027Z,99496.19
2022-11-22T23:27:31.470Z,99504.38
2022-11-22T23:30:37.068Z,99510.72
2022-11-22T23:33:44.277Z,99513.06
2022-11-22T23:36:49.661Z,99523.69
2022-11-22T23:39:55.373Z,99523.19
2022-11-22T23:43:00.819Z,99515.84
2022-11-22T23:46:06.625Z,99511.25
2022-11-22T23:49:12.352Z,99515.78
2022-11-22T23:52:19.331Z,99514.66
2022-11-22T23:55:25.252Z,99539.38
2022-11-22T23:58:30.872Z,99533.88
